Time;durP1;ratioP1;P1;durP2;ratioP2;P2;SDS_P1;SDS_P2;PMS_P1;PMS_P2;Temp;Humidity;BMP_temperature;BMP_pressure;BME280_temperature;BME280_humidity;BME280_pressure;Samples;Min_cycle;Max_cycle;Signal;HPM_P1;HPM_P2
2022/04/09 00:00:24;;;;;;;15.80;2.22;;;4.20;99.90;;;;;;5030785;28;20037;-82
2022/04/09 00:02:50;;;;;;;7.25;1.70;;;4.90;99.90;;;;;;5032344;28;20133;-79
2022/04/09 00:05:18;;;;;;;15.45;2.35;;;4.20;99.90;;;;;;5048486;28;20079;-84
2022/04/09 00:07:44;;;;;;;12.48;1.80;;;5.10;99.90;;;;;;5030433;28;20044;-84
2022/04/09 00:10:11;;;;;;;16.33;2.28;;;4.20;99.90;;;;;;5027303;28;20037;-84
2022/04/09 00:12:38;;;;;;;12.20;1.88;;;4.20;99.90;;;;;;5048824;28;20040;-81
2022/04/09 00:15:05;;;;;;;15.20;2.17;;;4.10;99.90;;;;;;5044853;28;20079;-83
2022/04/09 00:17:42;;;;;;;16.95;2.28;;;4.00;99.90;;;;;;5049015;28;20057;-82
2022/04/09 00:20:10;;;;;;;14.27;2.30;;;4.10;99.90;;;;;;5030429;28;20390;-78
2022/04/09 00:22:38;;;;;;;11.75;1.95;;;4.10;99.90;;;;;;5050661;28;20154;-81
2022/04/09 00:25:09;;;;;;;12.07;2.42;;;4.10;99.90;;;;;;5052865;28;20045;-82
2022/04/09 00:27:35;;;;;;;15.95;2.60;;;5.00;99.90;;;;;;5030889;28;20434;-84
2022/04/09 00:30:02;;;;;;;8.95;1.60;;;4.60;99.90;;;;;;5049327;28;20167;-82
2022/04/09 00:32:28;;;;;;;16.65;2.05;;;4.10;99.90;;;;;;5049272;28;20369;-82
2022/04/09 00:34:54;;;;;;;16.75;2.83;;;4.10;99.90;;;;;;5031363;28;20106;-82
2022/04/09 00:37:19;;;;;;;15.55;1.92;;;4.30;99.90;;;;;;5049187;28;20051;-81
2022/04/09 00:39:45;;;;;;;13.27;1.67;;;4.00;99.90;;;;;;5030739;28;20110;-86
2022/04/09 00:42:16;;;;;;;8.20;1.80;;;4.10;99.90;;;;;;5044832;28;20403;-82
2022/04/09 00:44:41;;;;;;;14.40;1.65;;;4.10;99.90;;;;;;5038263;28;20452;-81
2022/04/09 00:47:07;;;;;;;11.90;1.83;;;4.70;99.90;;;;;;5047992;28;20098;-83
2022/04/09 00:49:36;;;;;;;12.25;2.22;;;5.20;99.90;;;;;;5048001;28;20049;-82
2022/04/09 00:52:04;;;;;;;13.38;1.73;;;4.20;99.90;;;;;;5042846;28;20124;-79
2022/04/09 00:54:32;;;;;;;13.50;1.40;;;4.20;99.90;;;;;;5019124;28;20045;-80
2022/04/09 00:57:10;;;;;;;3.80;1.00;;;4.20;99.90;;;;;;5045375;28;20033;-80
2022/04/09 00:59:37;;;;;;;15.05;1.70;;;4.20;99.90;;;;;;5021207;28;20384;-80
2022/04/09 01:02:03;;;;;;;7.47;1.40;;;4.10;99.90;;;;;;5037503;28;20033;-80
2022/04/09 01:04:31;;;;;;;10.75;1.52;;;4.10;99.90;;;;;;5043085;28;20101;-79
2022/04/09 01:06:58;;;;;;;9.27;1.20;;;4.10;99.90;;;;;;5041459;28;20522;-79
2022/04/09 01:09:24;;;;;;;9.43;1.38;;;4.60;99.90;;;;;;5049710;28;20044;-80
2022/04/09 01:11:50;;;;;;;6.97;1.20;;;4.00;99.90;;;;;;5071283;28;20064;-80
2022/04/09 01:14:17;;;;;;;9.80;1.77;;;4.00;99.90;;;;;;5064264;28;20088;-79
2022/04/09 01:16:43;;;;;;;9.35;1.30;;;3.90;99.90;;;;;;5049116;28;20057;-78
2022/04/09 01:19:08;;;;;;;10.23;1.23;;;4.00;99.90;;;;;;5044416;28;20057;-78
2022/04/09 01:21:35;;;;;;;8.15;1.38;;;4.00;99.90;;;;;;5066002;28;20052;-77
2022/04/09 01:24:01;;;;;;;14.70;1.50;;;3.90;99.90;;;;;;5022992;28;20428;-79
2022/04/09 01:26:28;;;;;;;6.65;1.30;;;4.00;99.90;;;;;;5026528;28;20067;-79
2022/04/09 01:28:53;;;;;;;12.48;1.45;;;4.00;99.90;;;;;;5024449;28;20110;-80
2022/04/09 01:31:19;;;;;;;7.75;1.40;;;4.10;99.90;;;;;;5027609;28;20456;-79
2022/04/09 01:33:45;;;;;;;10.07;1.35;;;4.00;99.90;;;;;;5030164;28;20049;-81
2022/04/09 01:36:11;;;;;;;16.02;1.83;;;4.00;99.90;;;;;;5046259;28;20443;-80
2022/04/09 01:38:37;;;;;;;14.60;1.70;;;4.50;99.90;;;;;;5029620;28;20367;-80
2022/04/09 01:41:04;;;;;;;13.57;1.70;;;4.10;99.90;;;;;;5029704;28;20076;-81
2022/04/09 01:43:30;;;;;;;9.70;1.83;;;3.90;99.90;;;;;;5029629;28;20060;-81
2022/04/09 01:45:56;;;;;;;13.88;1.42;;;4.30;99.90;;;;;;5029351;28;20034;-80
2022/04/09 01:48:22;;;;;;;16.23;1.75;;;3.80;99.90;;;;;;5046972;28;20041;-79
2022/04/09 01:50:50;;;;;;;8.85;1.88;;;4.30;99.90;;;;;;5028588;28;20065;-79
2022/04/09 01:53:16;;;;;;;6.32;1.40;;;3.70;99.90;;;;;;5046084;28;20068;-80
2022/04/09 01:55:46;;;;;;;7.72;1.60;;;4.20;99.90;;;;;;5047300;28;20547;-80
2022/04/09 01:58:11;;;;;;;8.23;1.65;;;3.50;99.90;;;;;;5028315;28;20052;-80
2022/04/09 02:00:37;;;;;;;18.85;1.92;;;3.80;99.90;;;;;;5028152;28;20037;-80
2022/04/09 02:03:03;;;;;;;15.18;1.45;;;4.00;99.90;;;;;;5045988;28;20387;-80
2022/04/09 02:05:29;;;;;;;12.38;2.05;;;3.80;99.90;;;;;;5027798;28;20033;-80
2022/04/09 02:07:54;;;;;;;9.73;1.77;;;4.70;99.90;;;;;;5028904;28;20041;-80
2022/04/09 02:10:20;;;;;;;11.60;2.08;;;4.60;99.90;;;;;;5046323;28;20037;-79
2022/04/09 02:12:47;;;;;;;9.68;1.40;;;3.70;99.90;;;;;;5029881;28;20033;-79
2022/04/09 02:15:16;;;;;;;11.07;1.67;;;3.70;99.90;;;;;;5012158;28;20040;-80
2022/04/09 02:17:43;;;;;;;10.93;1.73;;;3.70;99.90;;;;;;5029784;28;20130;-80
2022/04/09 02:20:13;;;;;;;10.13;1.63;;;3.70;99.90;;;;;;5029067;28;20037;-81
2022/04/09 02:22:41;;;;;;;9.60;2.47;;;3.60;99.90;;;;;;5046176;28;20037;-81
2022/04/09 02:25:11;;;;;;;12.50;1.90;;;4.10;99.90;;;;;;5046228;28;20167;-80
2022/04/09 02:27:37;;;;;;;16.30;1.60;;;3.50;99.90;;;;;;5045414;28;20425;-81
2022/04/09 02:30:05;;;;;;;17.90;1.80;;;4.60;99.90;;;;;;5045708;28;20497;-81
2022/04/09 02:32:30;;;;;;;16.38;2.17;;;3.50;99.90;;;;;;5045689;28;20112;-80
2022/04/09 02:34:56;;;;;;;9.55;1.55;;;3.60;99.90;;;;;;5046511;28;20425;-80
2022/04/09 02:37:22;;;;;;;11.05;1.80;;;4.40;99.90;;;;;;5030068;28;20087;-79
2022/04/09 02:39:49;;;;;;;13.18;1.95;;;3.60;99.90;;;;;;5030008;28;20041;-79
2022/04/09 02:42:14;;;;;;;14.27;1.75;;;4.30;99.90;;;;;;5045562;28;20074;-80
2022/04/09 02:44:43;;;;;;;9.13;1.55;;;3.80;99.90;;;;;;5028002;28;20121;-81
2022/04/09 02:47:09;;;;;;;10.88;1.52;;;3.80;99.90;;;;;;5047551;28;20439;-81
2022/04/09 02:49:35;;;;;;;10.85;1.60;;;4.40;99.90;;;;;;5029116;28;20033;-80
2022/04/09 02:52:00;;;;;;;9.25;1.83;;;3.60;99.90;;;;;;5046317;28;20055;-81
2022/04/09 02:54:26;;;;;;;9.35;1.75;;;3.60;99.90;;;;;;5046582;28;20045;-80
2022/04/09 02:56:52;;;;;;;13.50;1.60;;;3.60;99.90;;;;;;5046084;28;20060;-80
2022/04/09 02:59:17;;;;;;;11.05;1.83;;;3.60;99.90;;;;;;5045124;28;20052;-80
2022/04/09 03:01:46;;;;;;;8.90;1.70;;;3.60;99.90;;;;;;5046451;28;20399;-81
2022/04/09 03:04:14;;;;;;;16.65;2.00;;;3.60;99.90;;;;;;5045304;28;20447;-81
2022/04/09 03:06:40;;;;;;;13.98;1.70;;;3.60;99.90;;;;;;5017040;28;20064;-81
2022/04/09 03:09:06;;;;;;;21.88;2.13;;;3.60;99.90;;;;;;5050718;28;20037;-81
2022/04/09 03:11:31;;;;;;;9.13;1.58;;;3.60;99.90;;;;;;5048585;28;20044;-81
2022/04/09 03:13:57;;;;;;;15.77;1.58;;;3.50;99.90;;;;;;5048958;28;20135;-80
2022/04/09 03:16:23;;;;;;;12.77;1.50;;;3.60;99.90;;;;;;5050836;28;20044;-79
2022/04/09 03:18:49;;;;;;;10.02;1.30;;;3.50;99.90;;;;;;5049832;28;20507;-79
2022/04/09 03:21:15;;;;;;;11.65;1.48;;;4.40;99.90;;;;;;5031842;28;20091;-81
2022/04/09 03:23:41;;;;;;;9.73;1.60;;;4.60;99.90;;;;;;5032526;28;20040;-79
2022/04/09 03:26:07;;;;;;;13.45;1.67;;;3.60;99.90;;;;;;5032301;28;20037;-79
2022/04/09 03:28:33;;;;;;;7.95;1.20;;;4.00;99.90;;;;;;5047894;28;20459;-78
2022/04/09 03:30:59;;;;;;;11.50;1.83;;;3.80;99.90;;;;;;5049424;28;20106;-80
2022/04/09 03:33:27;;;;;;;7.43;1.20;;;3.60;99.90;;;;;;5032478;28;20033;-80
2022/04/09 03:35:52;;;;;;;10.27;1.60;;;3.60;99.90;;;;;;5047173;28;20159;-80
2022/04/09 03:38:18;;;;;;;8.38;1.60;;;3.60;99.90;;;;;;5046286;28;20127;-80
2022/04/09 03:40:44;;;;;;;8.65;1.88;;;4.50;99.90;;;;;;5048443;28;20048;-80
2022/04/09 03:43:10;;;;;;;5.38;1.40;;;3.50;99.90;;;;;;5031467;28;20574;-80
2022/04/09 03:45:36;;;;;;;14.55;2.38;;;3.40;99.90;;;;;;5030325;28;20083;-80
2022/04/09 03:48:02;;;;;;;11.27;1.80;;;3.40;99.90;;;;;;5048529;28;20035;-80
2022/04/09 03:50:28;;;;;;;12.82;1.70;;;3.30;99.90;;;;;;5030552;28;20039;-80
2022/04/09 03:52:53;;;;;;;11.07;2.13;;;3.30;99.90;;;;;;5048396;28;20041;-80
2022/04/09 03:55:19;;;;;;;10.95;1.80;;;3.20;99.90;;;;;;5032024;28;20471;-80
2022/04/09 03:57:45;;;;;;;14.43;1.92;;;3.20;99.90;;;;;;5031916;28;20075;-80
2022/04/09 04:00:13;;;;;;;13.52;2.15;;;3.20;99.90;;;;;;5047456;28;20071;-80
2022/04/09 04:02:47;;;;;;;11.02;1.65;;;3.20;99.90;;;;;;5028264;28;20083;-80
2022/04/09 04:05:12;;;;;;;12.50;1.67;;;3.20;99.90;;;;;;5041898;28;20495;-80
2022/04/09 04:07:46;;;;;;;16.98;2.28;;;3.10;99.90;;;;;;5048356;28;20033;-80
2022/04/09 04:10:13;;;;;;;15.30;1.77;;;3.50;99.90;;;;;;5045213;28;20037;-80
2022/04/09 04:12:40;;;;;;;14.20;1.83;;;3.20;99.90;;;;;;5014133;28;20125;-80
2022/04/09 04:15:07;;;;;;;11.13;1.60;;;3.90;99.90;;;;;;5047731;28;20040;-81
2022/04/09 04:17:45;;;;;;;8.00;1.38;;;3.30;99.90;;;;;;5031727;28;20075;-80
2022/04/09 04:20:11;;;;;;;11.02;1.50;;;3.30;99.90;;;;;;5028459;28;20186;-80
2022/04/09 04:22:37;;;;;;;8.05;1.30;;;4.10;99.90;;;;;;5031590;28;20583;-81
2022/04/09 04:25:04;;;;;;;14.05;1.83;;;3.30;99.90;;;;;;5030278;28;20123;-81
2022/04/09 04:27:31;;;;;;;16.55;1.50;;;3.40;99.90;;;;;;5030221;28;20048;-80
2022/04/09 04:30:02;;;;;;;8.77;1.60;;;3.50;99.90;;;;;;5046637;28;20045;-80
2022/04/09 04:32:28;;;;;;;13.35;1.58;;;4.30;99.90;;;;;;5020581;28;20083;-81
2022/04/09 04:34:54;;;;;;;8.20;1.38;;;3.50;99.90;;;;;;5045337;28;20073;-79
2022/04/09 04:37:19;;;;;;;12.07;1.50;;;4.50;99.90;;;;;;5031047;28;20470;-81
2022/04/09 04:39:45;;;;;;;12.70;1.77;;;4.10;99.90;;;;;;5031204;28;20088;-80
2022/04/09 04:42:11;;;;;;;7.57;1.40;;;3.40;99.90;;;;;;5049232;28;20044;-79
2022/04/09 04:44:36;;;;;;;13.43;1.58;;;3.40;99.90;;;;;;5047965;28;20064;-79
2022/04/09 04:47:03;;;;;;;18.33;1.90;;;3.40;99.90;;;;;;5027800;28;20124;-79
2022/04/09 04:49:28;;;;;;;18.90;1.33;;;3.30;99.90;;;;;;5031133;28;20037;-79
2022/04/09 04:51:54;;;;;;;13.35;1.60;;;3.60;99.90;;;;;;5048576;28;20036;-79
2022/04/09 04:54:20;;;;;;;13.93;1.77;;;3.30;99.90;;;;;;5028663;28;20032;-79
2022/04/09 04:56:45;;;;;;;8.70;1.58;;;3.30;99.90;;;;;;5047356;28;20049;-79
2022/04/09 04:59:11;;;;;;;22.85;2.00;;;4.10;99.90;;;;;;5046595;28;20037;-80
2022/04/09 05:01:40;;;;;;;22.20;2.20;;;3.20;99.90;;;;;;5045740;28;20134;-80
2022/04/09 05:04:06;;;;;;;14.57;1.70;;;3.10;99.90;;;;;;5046834;28;20043;-80
2022/04/09 05:06:32;;;;;;;10.85;1.80;;;3.30;99.90;;;;;;5029481;28;20496;-80
2022/04/09 05:08:58;;;;;;;10.25;1.58;;;3.30;99.90;;;;;;5046421;28;20550;-80
2022/04/09 05:11:24;;;;;;;10.77;1.60;;;3.30;99.90;;;;;;5030896;28;20072;-80
2022/04/09 05:13:49;;;;;;;16.42;1.85;;;3.30;99.90;;;;;;5030582;28;20041;-80
2022/04/09 05:16:15;;;;;;;14.25;1.90;;;4.10;99.90;;;;;;5047546;28;20052;-79
2022/04/09 05:18:41;;;;;;;16.42;2.00;;;3.50;99.90;;;;;;5047645;28;20044;-80
2022/04/09 05:21:07;;;;;;;11.10;2.10;;;4.50;99.90;;;;;;5044778;28;20249;-79
2022/04/09 05:23:32;;;;;;;12.63;1.63;;;3.60;99.90;;;;;;5031813;28;20045;-80
2022/04/09 05:25:58;;;;;;;14.50;2.10;;;3.60;99.90;;;;;;5029631;28;20514;-80
2022/04/09 05:28:25;;;;;;;9.75;1.60;;;3.60;99.90;;;;;;5028728;28;20491;-84
2022/04/09 05:30:51;;;;;;;11.50;1.77;;;3.70;99.90;;;;;;5031740;28;20043;-85
2022/04/09 05:33:18;;;;;;;14.27;2.10;;;3.60;99.90;;;;;;5046585;28;20033;-85
2022/04/09 05:35:43;;;;;;;19.63;1.90;;;3.80;99.90;;;;;;5044421;28;20070;-83
2022/04/09 05:38:09;;;;;;;19.65;2.00;;;4.10;99.90;;;;;;5027895;28;20492;-83
2022/04/09 05:40:36;;;;;;;10.32;1.75;;;4.80;99.90;;;;;;5025293;28;20072;-83
2022/04/09 05:43:02;;;;;;;14.25;2.03;;;4.00;99.90;;;;;;5029254;28;20136;-84
2022/04/09 05:45:28;;;;;;;12.55;1.52;;;4.30;99.90;;;;;;5048174;28;20041;-82
2022/04/09 05:47:55;;;;;;;13.82;1.70;;;4.00;99.90;;;;;;5045749;28;20365;-83
2022/04/09 05:50:21;;;;;;;17.80;1.80;;;4.10;99.90;;;;;;5040994;28;20079;-85
2022/04/09 05:52:49;;;;;;;12.40;1.92;;;4.00;99.90;;;;;;5026526;28;20099;-80
2022/04/09 05:55:16;;;;;;;8.00;1.25;;;4.80;99.90;;;;;;5049502;28;20063;-79
2022/04/09 05:57:45;;;;;;;7.63;1.10;;;4.30;99.90;;;;;;5028062;28;20120;-83
2022/04/09 06:00:13;;;;;;;10.75;1.40;;;4.60;99.90;;;;;;5046000;28;20159;-82
2022/04/09 06:02:39;;;;;;;8.80;1.50;;;3.40;99.90;;;;;;5030936;28;20041;-81
2022/04/09 06:05:06;;;;;;;10.27;1.48;;;3.50;99.90;;;;;;5046686;28;20147;-81
2022/04/09 06:07:32;;;;;;;10.10;1.45;;;3.60;99.90;;;;;;5031351;28;20037;-79
2022/04/09 06:09:58;;;;;;;9.02;1.77;;;3.60;99.90;;;;;;5048124;28;20120;-80
2022/04/09 06:12:24;;;;;;;16.52;2.00;;;4.20;99.90;;;;;;5045428;28;20033;-81
2022/04/09 06:14:50;;;;;;;14.88;2.03;;;3.80;99.90;;;;;;5049265;28;20033;-80
2022/04/09 06:17:16;;;;;;;22.98;2.00;;;3.90;99.90;;;;;;5047515;28;20041;-81
2022/04/09 06:19:42;;;;;;;8.43;1.33;;;4.00;99.90;;;;;;5030950;28;20036;-81
2022/04/09 06:22:08;;;;;;;19.38;3.42;;;4.10;99.90;;;;;;5042473;28;20117;-79
2022/04/09 06:24:34;;;;;;;12.35;2.10;;;5.10;99.90;;;;;;5047600;28;20197;-79
2022/04/09 06:27:00;;;;;;;15.45;2.20;;;4.60;99.90;;;;;;5048530;28;20121;-78
2022/04/09 06:29:25;;;;;;;21.92;2.58;;;4.50;99.90;;;;;;5037841;28;20109;-81
2022/04/09 06:31:51;;;;;;;17.63;2.33;;;4.60;99.90;;;;;;5054648;28;20040;-81
2022/04/09 06:34:17;;;;;;;13.23;2.35;;;4.70;99.90;;;;;;5034929;28;20294;-81
2022/04/09 06:36:43;;;;;;;15.48;2.30;;;5.20;99.90;;;;;;5072965;28;20478;-80
2022/04/09 06:39:09;;;;;;;18.50;2.55;;;4.90;99.90;;;;;;5073444;28;20040;-80
2022/04/09 06:41:36;;;;;;;18.67;2.13;;;5.10;99.90;;;;;;5050144;28;20032;-79
2022/04/09 06:44:03;;;;;;;22.65;2.85;;;5.10;99.90;;;;;;5050035;28;20076;-79
2022/04/09 06:46:29;;;;;;;19.70;2.63;;;5.00;99.90;;;;;;5052717;28;20060;-81
2022/04/09 06:48:54;;;;;;;17.80;2.33;;;5.40;99.90;;;;;;5036751;28;20333;-77
2022/04/09 06:51:24;;;;;;;19.30;2.38;;;5.10;99.90;;;;;;5037100;28;20036;-81
2022/04/09 06:53:50;;;;;;;17.42;2.22;;;5.10;99.90;;;;;;5038394;28;20108;-79
2022/04/09 06:56:16;;;;;;;22.45;2.35;;;5.10;99.90;;;;;;5049693;28;20170;-79
2022/04/09 06:58:41;;;;;;;24.33;2.40;;;5.90;99.90;;;;;;5054262;28;20063;-80
2022/04/09 07:01:07;;;;;;;14.35;1.90;;;5.20;99.90;;;;;;5039887;28;20037;-81
2022/04/09 07:03:33;;;;;;;17.90;2.33;;;5.30;99.90;;;;;;5069728;28;20032;-78
2022/04/09 07:05:58;;;;;;;16.08;2.25;;;5.80;99.90;;;;;;5036930;28;20052;-77
2022/04/09 07:08:24;;;;;;;8.50;1.42;;;5.60;99.90;;;;;;5050244;28;20033;-79
2022/04/09 07:10:50;;;;;;;17.67;2.13;;;5.90;99.90;;;;;;5039293;28;20040;-79
2022/04/09 07:13:16;;;;;;;16.45;1.88;;;6.00;99.90;;;;;;5041383;28;20045;-78
2022/04/09 07:15:42;;;;;;;13.75;1.58;;;6.30;99.90;;;;;;5059633;28;20028;-80
2022/04/09 07:18:08;;;;;;;12.43;1.90;;;6.20;99.90;;;;;;5052573;28;20171;-78
2022/04/09 07:20:36;;;;;;;11.30;1.83;;;6.20;99.90;;;;;;5048525;28;20104;-79
2022/04/09 07:23:04;;;;;;;9.77;1.33;;;6.30;99.90;;;;;;5036671;28;20036;-80
2022/04/09 07:25:31;;;;;;;12.68;1.98;;;6.40;99.90;;;;;;5040229;28;20037;-78
2022/04/09 07:27:57;;;;;;;8.95;1.60;;;6.70;99.90;;;;;;5036076;28;20049;-82
2022/04/09 07:30:24;;;;;;;9.05;1.70;;;6.50;99.90;;;;;;5052779;28;20418;-78
2022/04/09 07:32:50;;;;;;;5.32;1.10;;;7.30;99.90;;;;;;5054163;28;20441;-81
2022/04/09 07:35:16;;;;;;;17.85;2.13;;;6.70;99.90;;;;;;5051974;28;20036;-81
2022/04/09 07:37:49;;;;;;;15.95;1.65;;;7.00;99.90;;;;;;5053680;28;20064;-82
2022/04/09 07:40:15;;;;;;;8.63;2.03;;;6.50;99.90;;;;;;5051496;28;20078;-80
2022/04/09 07:42:45;;;;;;;11.60;1.88;;;7.40;99.90;;;;;;5050879;28;20064;-81
2022/04/09 07:45:15;;;;;;;7.43;1.40;;;6.60;99.90;;;;;;5035144;28;20044;-81
2022/04/09 07:47:42;;;;;;;9.35;1.33;;;6.80;99.90;;;;;;5033125;28;20029;-81
2022/04/09 07:50:10;;;;;;;11.93;1.75;;;6.50;99.90;;;;;;5031670;28;20043;-79
2022/04/09 07:52:39;;;;;;;7.80;1.48;;;6.40;99.90;;;;;;5031676;28;20455;-79
2022/04/09 07:55:09;;;;;;;10.20;1.52;;;6.30;99.90;;;;;;5036499;28;20394;-81
2022/04/09 07:57:45;;;;;;;12.68;1.73;;;6.30;99.90;;;;;;5037131;28;20112;-86
2022/04/09 08:00:12;;;;;;;12.60;1.55;;;6.80;99.90;;;;;;5033440;28;20055;-80
2022/04/09 08:02:38;;;;;;;18.75;2.47;;;6.40;99.90;;;;;;5053324;28;20040;-80
2022/04/09 08:05:05;;;;;;;16.85;2.40;;;6.60;99.90;;;;;;5037664;28;20420;-80
2022/04/09 08:07:30;;;;;;;20.63;2.08;;;6.60;99.90;;;;;;5053941;28;20051;-80
2022/04/09 08:09:56;;;;;;;15.23;1.75;;;6.90;99.90;;;;;;5037077;28;20044;-78
2022/04/09 08:12:22;;;;;;;15.75;1.65;;;7.00;99.90;;;;;;5037416;28;20037;-79
2022/04/09 08:14:47;;;;;;;10.32;1.80;;;7.20;99.90;;;;;;5053985;28;20115;-79
2022/04/09 08:17:13;;;;;;;13.35;2.00;;;7.20;99.90;;;;;;5054758;28;20040;-81
2022/04/09 08:19:39;;;;;;;8.68;1.50;;;7.40;99.90;;;;;;5054479;28;20085;-81
2022/04/09 08:22:06;;;;;;;11.02;1.83;;;7.40;99.90;;;;;;5037293;28;20446;-79
2022/04/09 08:24:32;;;;;;;14.90;1.92;;;7.50;99.90;;;;;;5049038;28;20036;-80
2022/04/09 08:26:58;;;;;;;9.00;1.63;;;7.50;99.90;;;;;;5034342;28;20432;-78
2022/04/09 08:29:24;;;;;;;11.85;1.90;;;7.60;99.90;;;;;;5035566;28;20041;-78
2022/04/09 08:31:51;;;;;;;11.23;2.13;;;7.70;99.90;;;;;;5035870;28;20044;-79
2022/04/09 08:34:18;;;;;;;16.58;2.33;;;7.70;99.90;;;;;;5036450;28;20059;-82
2022/04/09 08:36:44;;;;;;;12.70;1.95;;;7.70;99.90;;;;;;5034717;28;20121;-78
2022/04/09 08:39:13;;;;;;;13.02;1.63;;;7.70;99.90;;;;;;5050553;28;20052;-80
2022/04/09 08:41:42;;;;;;;17.83;2.00;;;7.80;99.90;;;;;;5051379;28;20036;-77
2022/04/09 08:44:09;;;;;;;14.35;2.15;;;8.00;99.90;;;;;;5050510;28;20146;-79
2022/04/09 08:46:35;;;;;;;19.63;2.50;;;8.40;99.90;;;;;;5051455;28;20033;-78
2022/04/09 08:49:05;;;;;;;11.70;1.75;;;8.20;99.90;;;;;;5049832;28;20051;-80
2022/04/09 08:51:31;;;;;;;10.45;1.52;;;8.10;99.90;;;;;;5051228;28;20063;-80
2022/04/09 08:54:00;;;;;;;11.40;2.28;;;8.70;99.90;;;;;;5049881;28;20115;-77
2022/04/09 08:56:26;;;;;;;4.85;1.00;;;8.20;99.90;;;;;;5050395;28;20105;-77
2022/04/09 08:58:51;;;;;;;8.05;1.10;;;7.60;99.90;;;;;;5030942;28;20139;-77
2022/04/09 09:01:20;;;;;;;7.68;1.10;;;7.40;99.90;;;;;;5033503;28;20063;-77
2022/04/09 09:03:46;;;;;;;7.28;0.95;;;6.60;99.90;;;;;;5034454;28;20181;-77
2022/04/09 09:06:32;;;;;;;4.68;0.68;;;6.20;99.90;;;;;;5052883;28;20135;-76
2022/04/09 09:09:00;;;;;;;2.33;0.52;;;5.70;99.90;;;;;;5048596;28;20108;-77
2022/04/09 09:11:28;;;;;;;4.65;0.47;;;5.70;99.90;;;;;;5033167;28;20501;-77
2022/04/09 09:13:57;;;;;;;3.10;0.82;;;5.70;99.90;;;;;;5030495;28;20040;-77
2022/04/09 09:16:32;;;;;;;6.90;0.98;;;5.80;99.90;;;;;;5033616;28;20181;-76
2022/04/09 09:19:06;;;;;;;9.10;1.40;;;5.90;99.90;;;;;;5050039;28;20077;-77
2022/04/09 09:21:32;;;;;;;8.82;1.20;;;6.10;99.90;;;;;;5034699;28;20063;-78
2022/04/09 09:24:06;;;;;;;5.60;1.33;;;6.30;99.90;;;;;;5041895;28;20040;-79
2022/04/09 09:26:37;;;;;;;10.30;1.23;;;6.40;99.90;;;;;;5044299;28;20047;-79
2022/04/09 09:29:03;;;;;;;12.18;1.33;;;6.60;99.90;;;;;;5022366;28;20098;-79
2022/04/09 09:31:45;;;;;;;10.55;1.73;;;6.80;99.90;;;;;;5050194;28;20040;-79
2022/04/09 09:34:16;;;;;;;8.25;1.48;;;7.20;99.90;;;;;;5023430;28;20451;-79
2022/04/09 09:36:46;;;;;;;9.23;1.38;;;7.40;99.90;;;;;;5050052;28;20388;-82
2022/04/09 09:39:14;;;;;;;14.23;1.85;;;7.70;99.90;;;;;;5067986;28;20123;-79
2022/04/09 09:41:50;;;;;;;8.23;1.63;;;8.10;99.90;;;;;;5038729;28;20043;-80
2022/04/09 09:44:45;;;;;;;5.50;1.42;;;8.30;99.90;;;;;;5048455;28;20469;-84
2022/04/09 09:47:12;;;;;;;5.40;1.20;;;7.90;99.90;;;;;;5033369;28;20395;-85
2022/04/09 09:49:47;;;;;;;9.13;1.27;;;6.80;99.90;;;;;;5033247;28;20041;-89
2022/04/09 09:52:14;;;;;;;11.90;1.25;;;6.20;99.90;;;;;;5033962;28;20036;-85
2022/04/09 09:55:10;;;;;;;6.78;0.90;;;6.00;99.90;;;;;;5037228;28;20076;-84
2022/04/09 09:57:53;;;;;;;1.80;0.43;;;6.00;99.90;;;;;;5048281;28;20033;-81
2022/04/09 10:00:19;;;;;;;2.85;0.50;;;6.10;99.90;;;;;;5042598;28;20079;-85
2022/04/09 10:02:45;;;;;;;1.27;0.30;;;6.40;99.90;;;;;;5045110;28;21013;-83
2022/04/09 10:05:23;;;;;;;1.95;0.32;;;6.40;99.90;;;;;;5042912;28;20413;-82
2022/04/09 10:07:50;;;;;;;4.18;0.65;;;6.60;99.90;;;;;;5035859;28;20101;-82
2022/04/09 10:10:16;;;;;;;1.38;0.30;;;6.80;99.90;;;;;;5031604;28;20040;-83
2022/04/09 10:13:18;;;;;;;0.52;0.40;;;7.20;99.90;;;;;;5050960;28;20032;-83
2022/04/09 10:15:47;;;;;;;2.97;0.47;;;6.70;99.90;;;;;;5054631;28;20040;-81
2022/04/09 10:18:13;;;;;;;2.92;0.40;;;6.80;99.90;;;;;;5040394;28;20476;-80
2022/04/09 10:20:39;;;;;;;3.30;0.65;;;6.90;99.90;;;;;;5039553;28;20047;-78
2022/04/09 10:23:09;;;;;;;9.13;1.35;;;7.10;99.90;;;;;;5036977;28;20041;-78
2022/04/09 10:25:39;;;;;;;8.20;1.10;;;7.30;99.90;;;;;;5035925;28;20450;-82
2022/04/09 10:28:06;;;;;;;3.25;0.80;;;7.30;99.90;;;;;;5023729;28;20091;-80
2022/04/09 10:30:41;;;;;;;6.78;0.90;;;7.40;99.90;;;;;;5034438;28;20057;-82
2022/04/09 10:33:26;;;;;;;9.25;1.25;;;7.40;99.90;;;;;;5032933;28;20508;-83
2022/04/09 10:35:52;;;;;;;5.15;0.80;;;7.60;99.90;;;;;;5012763;28;20131;-89
2022/04/09 10:38:23;;;;;;;7.45;1.10;;;7.40;99.90;;;;;;5014731;28;20471;-83
2022/04/09 10:40:57;;;;;;;3.22;0.57;;;8.00;99.90;;;;;;5029279;28;20146;-83
2022/04/09 10:43:23;;;;;;;3.17;0.45;;;8.10;99.90;;;;;;5029458;28;20053;-83
2022/04/09 10:46:08;;;;;;;5.05;0.90;;;8.50;99.90;;;;;;5015142;28;20046;-83
2022/04/09 10:48:35;;;;;;;2.17;0.65;;;8.20;99.90;;;;;;5010772;28;20073;-85
2022/04/09 10:51:04;;;;;;;2.88;0.70;;;8.30;99.90;;;;;;5011228;28;20504;-86
2022/04/09 10:53:39;;;;;;;6.10;1.02;;;8.20;99.90;;;;;;5026179;28;20054;-83
2022/04/09 10:56:24;;;;;;;7.25;1.20;;;8.10;99.90;;;;;;5028081;28;20073;-81
2022/04/09 10:59:18;;;;;;;8.70;1.20;;;8.20;99.90;;;;;;5003484;28;20132;-82
2022/04/09 11:01:46;;;;;;;3.83;0.90;;;8.50;99.90;;;;;;5011586;28;20041;-83
2022/04/09 11:04:28;;;;;;;5.78;1.30;;;8.70;99.90;;;;;;5025677;28;20080;-82
2022/04/09 11:07:04;;;;;;;5.78;1.15;;;8.80;99.90;;;;;;5010738;28;20049;-82
2022/04/09 11:10:00;;;;;;;9.05;1.35;;;8.90;99.90;;;;;;5026422;28;20033;-82
2022/04/09 11:12:41;;;;;;;6.63;0.98;;;8.90;99.90;;;;;;4954348;28;20051;-81
2022/04/09 11:15:27;;;;;;;7.13;1.30;;;9.00;99.90;;;;;;4951168;28;20630;-82
2022/04/09 11:18:02;;;;;;;5.25;0.90;;;9.10;99.90;;;;;;4938080;28;20074;-81
2022/04/09 11:20:36;;;;;;;9.32;1.55;;;8.80;99.90;;;;;;4936396;28;20119;-81
2022/04/09 11:23:12;;;;;;;5.47;1.23;;;8.50;99.90;;;;;;4945108;28;20139;-82
2022/04/09 11:25:42;;;;;;;14.50;2.05;;;8.40;99.90;;;;;;4955600;28;20200;-81
2022/04/09 11:28:17;;;;;;;9.95;1.35;;;8.30;99.90;;;;;;4968281;28;20124;-82
2022/04/09 11:30:58;;;;;;;8.23;1.38;;;8.30;99.90;;;;;;4973967;28;20137;-82
2022/04/09 11:33:23;;;;;;;11.30;1.67;;;9.50;99.90;;;;;;4981713;28;20047;-86
2022/04/09 11:35:50;;;;;;;8.95;1.50;;;9.00;99.90;;;;;;4976498;28;20046;-84
2022/04/09 11:38:16;;;;;;;6.60;1.50;;;8.80;99.90;;;;;;4989793;28;20046;-83
2022/04/09 11:40:48;;;;;;;7.72;1.50;;;8.70;99.90;;;;;;4955721;28;20182;-84
2022/04/09 11:44:00;;;;;;;12.52;2.00;;;9.10;99.90;;;;;;4941136;28;20066;-84
2022/04/09 11:46:32;;;;;;;10.02;1.88;;;8.90;99.90;;;;;;4973138;28;20049;-82
2022/04/09 11:49:01;;;;;;;6.68;1.50;;;10.00;99.90;;;;;;5008642;28;20057;-83
2022/04/09 11:51:26;;;;;;;7.50;1.17;;;10.10;99.90;;;;;;5050599;28;20044;-83
2022/04/09 11:53:52;;;;;;;9.77;1.83;;;10.80;99.90;;;;;;5033250;28;20045;-83
2022/04/09 11:56:18;;;;;;;8.38;1.50;;;9.60;99.90;;;;;;5050430;28;20056;-83
2022/04/09 11:58:43;;;;;;;7.00;1.20;;;9.90;99.90;;;;;;5051513;28;20068;-84
2022/04/09 12:01:09;;;;;;;9.55;1.30;;;9.10;99.90;;;;;;5048363;28;20039;-84
2022/04/09 12:03:36;;;;;;;13.07;1.55;;;9.00;99.90;;;;;;5047581;28;20103;-84
2022/04/09 12:06:02;;;;;;;7.35;1.40;;;9.30;99.90;;;;;;5032441;28;20044;-84
2022/04/09 12:08:31;;;;;;;3.60;0.90;;;9.70;99.90;;;;;;5032505;28;20148;-84
2022/04/09 12:11:01;;;;;;;5.75;1.05;;;10.10;99.90;;;;;;5029519;28;20052;-84
2022/04/09 12:13:35;;;;;;;6.50;1.10;;;10.00;99.90;;;;;;5031883;28;20041;-82
2022/04/09 12:16:22;;;;;;;4.82;0.95;;;9.90;99.90;;;;;;5050259;28;20045;-84
2022/04/09 12:18:48;;;;;;;6.47;0.95;;;10.10;99.90;;;;;;5050479;28;20143;-83
2022/04/09 12:21:25;;;;;;;5.50;1.13;;;10.30;99.90;;;;;;5048095;28;20117;-84
2022/04/09 12:24:11;;;;;;;10.45;1.00;;;10.50;99.90;;;;;;5024927;28;20077;-83
2022/04/09 12:26:44;;;;;;;6.00;1.10;;;10.70;99.90;;;;;;5046593;28;20033;-83
2022/04/09 12:29:16;;;;;;;5.20;1.35;;;10.50;99.90;;;;;;5047464;28;20368;-83
2022/04/09 12:31:47;;;;;;;8.63;1.20;;;10.40;99.90;;;;;;5049290;28;20099;-83
2022/04/09 12:34:13;;;;;;;8.27;1.30;;;10.30;99.90;;;;;;5045318;28;20065;-84
2022/04/09 12:37:01;;;;;;;7.13;1.25;;;10.80;99.90;;;;;;5033991;28;20138;-84
2022/04/09 12:39:28;;;;;;;6.80;1.30;;;11.30;99.90;;;;;;5034200;28;20104;-84
2022/04/09 12:41:54;;;;;;;6.28;1.27;;;10.60;99.90;;;;;;5034503;28;20087;-84
2022/04/09 12:44:31;;;;;;;7.28;1.35;;;10.60;99.90;;;;;;5047952;28;20037;-80
2022/04/09 12:46:58;;;;;;;5.78;1.20;;;10.10;99.90;;;;;;5033545;28;20072;-81
2022/04/09 12:49:32;;;;;;;8.68;1.60;;;10.40;99.90;;;;;;5050397;28;20064;-81
2022/04/09 12:51:57;;;;;;;6.72;1.50;;;10.60;99.90;;;;;;5044629;28;20033;-82
2022/04/09 12:54:24;;;;;;;6.78;1.42;;;11.20;99.90;;;;;;5030929;28;20041;-82
2022/04/09 12:56:52;;;;;;;7.78;1.58;;;10.90;99.90;;;;;;5024690;28;20056;-83